Time;durP1;ratioP1;P1;durP2;ratioP2;P2;SDS_P1;SDS_P2;PMS_P1;PMS_P2;Temp;Humidity;BMP_temperature;BMP_pressure;BME280_temperature;BME280_humidity;BME280_pressure;Samples;Min_cycle;Max_cycle;Signal;HPM_P1;HPM_P2
2022/01/05 00:00:07;;;;;;;7.10;1.90;;;5.30;99.90;;;;;;5004086;28;20241;-77
2022/01/05 00:02:35;;;;;;;13.13;3.23;;;5.30;99.90;;;;;;5007296;28;20232;-78
2022/01/05 00:05:02;;;;;;;11.07;2.27;;;5.30;99.90;;;;;;5002525;28;20230;-77
2022/01/05 00:07:28;;;;;;;9.40;2.27;;;5.30;99.90;;;;;;5006161;28;20767;-77
2022/01/05 00:09:55;;;;;;;8.60;2.70;;;5.40;99.90;;;;;;5003971;28;20220;-77
2022/01/05 00:12:23;;;;;;;9.13;2.93;;;5.40;99.90;;;;;;5007532;28;20250;-77
2022/01/05 00:14:50;;;;;;;8.93;2.57;;;5.40;99.90;;;;;;5006847;28;20216;-77
2022/01/05 00:17:16;;;;;;;5.37;1.70;;;5.40;99.90;;;;;;5008402;28;20224;-77
2022/01/05 00:19:44;;;;;;;9.67;2.13;;;5.40;99.90;;;;;;5020771;28;20569;-77
2022/01/05 00:22:11;;;;;;;7.87;2.10;;;5.30;99.90;;;;;;5007961;28;20584;-77
2022/01/05 00:24:38;;;;;;;9.70;1.97;;;5.30;99.90;;;;;;5002422;28;20235;-77
2022/01/05 00:27:05;;;;;;;9.00;1.90;;;5.30;99.90;;;;;;5002772;28;20270;-78
2022/01/05 00:29:33;;;;;;;6.83;2.17;;;5.30;99.90;;;;;;5009433;28;20223;-77
2022/01/05 00:31:59;;;;;;;8.70;1.83;;;5.30;99.90;;;;;;5011111;28;20351;-77
2022/01/05 00:34:26;;;;;;;9.40;2.40;;;5.30;99.90;;;;;;5010562;28;20614;-77
2022/01/05 00:36:52;;;;;;;6.67;1.83;;;5.30;99.90;;;;;;5010621;28;20235;-77
2022/01/05 00:39:19;;;;;;;10.60;1.90;;;5.30;99.90;;;;;;5015775;28;20220;-77
2022/01/05 00:41:46;;;;;;;9.50;2.43;;;5.30;99.90;;;;;;5015574;28;20356;-77
2022/01/05 00:44:13;;;;;;;5.53;1.90;;;5.30;99.90;;;;;;5011837;28;20231;-77
2022/01/05 00:46:41;;;;;;;5.93;1.60;;;5.30;99.90;;;;;;5006745;28;20582;-77
2022/01/05 00:49:07;;;;;;;8.87;1.70;;;5.20;99.90;;;;;;5004469;28;20753;-78
2022/01/05 00:51:34;;;;;;;6.30;1.80;;;5.20;99.90;;;;;;5012388;28;20235;-78
2022/01/05 00:54:01;;;;;;;6.90;2.23;;;5.20;99.90;;;;;;5005890;28;20227;-78
2022/01/05 00:56:27;;;;;;;7.33;1.90;;;5.20;99.90;;;;;;5006288;28;20222;-77
2022/01/05 00:58:54;;;;;;;5.90;2.23;;;5.20;99.90;;;;;;5006044;28;20223;-77
2022/01/05 01:01:21;;;;;;;11.57;1.90;;;5.20;99.90;;;;;;5008603;28;20230;-77
2022/01/05 01:03:49;;;;;;;5.53;1.97;;;5.20;99.90;;;;;;5005732;28;20576;-77
2022/01/05 01:06:16;;;;;;;9.80;1.60;;;5.10;99.90;;;;;;5011092;28;20222;-77
2022/01/05 01:08:42;;;;;;;9.93;2.47;;;5.10;99.90;;;;;;5020663;28;20226;-77
2022/01/05 01:11:09;;;;;;;6.20;1.97;;;5.10;99.90;;;;;;5009793;28;20217;-77
2022/01/05 01:13:36;;;;;;;7.23;1.77;;;5.10;99.90;;;;;;5006904;28;20242;-77
2022/01/05 01:16:03;;;;;;;7.97;1.93;;;5.00;99.90;;;;;;5008752;28;20399;-78
2022/01/05 01:18:30;;;;;;;14.53;1.90;;;5.10;99.90;;;;;;5008750;28;20244;-77
2022/01/05 01:20:58;;;;;;;9.87;2.47;;;5.10;99.90;;;;;;5012366;28;20215;-77
2022/01/05 01:23:26;;;;;;;12.63;1.60;;;5.00;99.90;;;;;;5007424;28;20213;-78
2022/01/05 01:25:53;;;;;;;6.60;1.80;;;5.00;99.90;;;;;;5007742;28;20220;-77
2022/01/05 01:28:21;;;;;;;6.63;1.70;;;5.00;99.90;;;;;;5013498;28;20244;-77
2022/01/05 01:30:48;;;;;;;5.50;1.80;;;5.00;99.90;;;;;;5012477;28;20588;-77
2022/01/05 01:33:15;;;;;;;7.87;2.17;;;5.00;99.90;;;;;;5012678;28;20223;-77
2022/01/05 01:35:42;;;;;;;6.77;2.00;;;5.00;99.90;;;;;;5014200;28;20219;-77
2022/01/05 01:38:10;;;;;;;12.27;2.10;;;5.00;99.90;;;;;;5014147;28;20318;-77
2022/01/05 01:40:37;;;;;;;11.50;2.13;;;5.00;99.90;;;;;;5007345;28;20222;-77
2022/01/05 01:43:03;;;;;;;10.63;1.90;;;4.90;99.90;;;;;;5015365;28;20733;-77
2022/01/05 01:45:30;;;;;;;8.70;2.23;;;5.00;99.90;;;;;;5009604;28;20231;-77
2022/01/05 01:47:57;;;;;;;8.40;2.33;;;4.90;99.90;;;;;;5011724;28;20227;-78
2022/01/05 01:50:24;;;;;;;6.43;1.70;;;4.90;99.90;;;;;;5016146;28;20288;-77
2022/01/05 01:52:50;;;;;;;8.43;1.90;;;4.90;99.90;;;;;;5002473;28;20244;-78
2022/01/05 01:55:19;;;;;;;7.53;1.97;;;4.90;99.90;;;;;;5011931;28;20312;-77
2022/01/05 01:57:46;;;;;;;6.03;1.97;;;4.90;99.90;;;;;;5015793;28;20228;-78
2022/01/05 02:00:14;;;;;;;7.50;1.83;;;4.90;99.90;;;;;;5014742;28;20212;-78
2022/01/05 02:02:44;;;;;;;6.23;1.80;;;4.90;99.90;;;;;;5017795;28;20235;-77
2022/01/05 02:05:11;;;;;;;6.20;1.77;;;4.90;99.90;;;;;;5015137;28;20270;-77
2022/01/05 02:07:38;;;;;;;8.60;1.80;;;4.80;99.90;;;;;;5019810;28;20239;-78
2022/01/05 02:10:05;;;;;;;8.23;1.97;;;4.80;99.90;;;;;;5009735;28;20227;-78
2022/01/05 02:12:33;;;;;;;11.10;2.57;;;4.80;99.90;;;;;;5009820;28;20234;-77
2022/01/05 02:15:00;;;;;;;7.43;2.43;;;4.80;99.90;;;;;;5009482;28;20224;-77
2022/01/05 02:17:42;;;;;;;6.23;1.97;;;4.80;99.90;;;;;;5008541;28;20219;-77
2022/01/05 02:20:14;;;;;;;6.37;1.83;;;4.80;99.90;;;;;;5004978;28;20263;-77
2022/01/05 02:22:42;;;;;;;5.60;2.37;;;4.80;99.90;;;;;;5012380;28;20224;-77
2022/01/05 02:25:09;;;;;;;9.67;2.40;;;4.80;99.90;;;;;;5020483;28;20222;-77
2022/01/05 02:27:39;;;;;;;6.87;2.20;;;4.80;99.90;;;;;;5010001;28;20218;-78
2022/01/05 02:30:06;;;;;;;7.60;2.07;;;4.80;99.90;;;;;;5012626;28;20561;-78
2022/01/05 02:32:33;;;;;;;10.03;2.43;;;4.80;99.90;;;;;;5005875;28;20217;-79
2022/01/05 02:35:00;;;;;;;13.57;2.30;;;4.80;99.90;;;;;;5018822;28;20339;-78
2022/01/05 02:37:26;;;;;;;9.20;2.50;;;4.80;99.90;;;;;;5018165;28;20230;-78
2022/01/05 02:39:55;;;;;;;9.37;2.20;;;4.80;99.90;;;;;;5006732;28;20216;-78
2022/01/05 02:42:26;;;;;;;7.63;2.47;;;4.80;99.90;;;;;;5009769;28;20597;-79
2022/01/05 02:44:52;;;;;;;9.23;1.90;;;4.80;99.90;;;;;;5020619;28;20287;-79
2022/01/05 02:47:19;;;;;;;9.57;2.37;;;4.70;99.90;;;;;;5027464;28;20224;-78
2022/01/05 02:49:46;;;;;;;9.23;2.00;;;4.80;99.90;;;;;;5009461;28;20253;-79
2022/01/05 02:52:13;;;;;;;8.20;2.00;;;4.70;99.90;;;;;;5014755;28;20600;-79
2022/01/05 02:54:40;;;;;;;12.17;2.47;;;4.70;99.90;;;;;;5008811;28;20225;-79
2022/01/05 02:57:08;;;;;;;8.97;2.20;;;4.70;99.90;;;;;;5011754;28;20667;-79
2022/01/05 02:59:35;;;;;;;13.03;2.70;;;4.70;99.90;;;;;;5017097;28;20229;-79
2022/01/05 03:02:01;;;;;;;7.00;2.33;;;4.70;99.90;;;;;;5023600;28;20254;-78
2022/01/05 03:04:28;;;;;;;8.40;2.27;;;4.70;99.90;;;;;;5011380;28;20217;-77
2022/01/05 03:06:55;;;;;;;8.57;2.20;;;4.70;99.90;;;;;;5010738;28;20223;-78
2022/01/05 03:09:21;;;;;;;10.20;2.27;;;4.70;99.90;;;;;;5020339;28;20230;-78
2022/01/05 03:11:48;;;;;;;11.23;2.30;;;4.80;99.90;;;;;;5012570;28;20215;-79
2022/01/05 03:14:16;;;;;;;11.17;2.83;;;4.70;99.90;;;;;;5019932;28;20229;-79
2022/01/05 03:16:43;;;;;;;8.53;2.03;;;4.70;99.90;;;;;;5014626;28;20214;-79
2022/01/05 03:19:09;;;;;;;8.77;2.10;;;4.70;99.90;;;;;;5010332;28;20315;-80
2022/01/05 03:21:36;;;;;;;12.07;2.50;;;4.70;99.90;;;;;;5018070;28;20216;-79
2022/01/05 03:24:03;;;;;;;9.57;2.20;;;4.70;99.90;;;;;;5017176;28;20222;-80
2022/01/05 03:26:30;;;;;;;7.47;1.87;;;4.70;99.90;;;;;;5009758;28;20236;-78
2022/01/05 03:28:56;;;;;;;8.87;1.60;;;4.70;99.90;;;;;;5010782;28;20686;-78
2022/01/05 03:31:24;;;;;;;8.17;2.47;;;4.80;99.90;;;;;;5010351;28;20227;-78
2022/01/05 03:33:51;;;;;;;6.50;1.73;;;4.70;99.90;;;;;;5013346;28;20709;-78
2022/01/05 03:36:18;;;;;;;6.60;1.90;;;4.80;99.90;;;;;;5007239;28;20644;-78
2022/01/05 03:38:45;;;;;;;11.57;2.03;;;4.70;99.90;;;;;;5021120;28;20549;-78
2022/01/05 03:41:12;;;;;;;7.10;2.03;;;4.80;99.90;;;;;;5009327;28;20223;-77
2022/01/05 03:43:39;;;;;;;13.13;2.53;;;4.80;99.90;;;;;;5018596;28;20254;-78
2022/01/05 03:46:06;;;;;;;8.23;2.40;;;4.80;99.90;;;;;;5015273;28;20229;-78
2022/01/05 03:48:34;;;;;;;7.80;1.90;;;4.80;99.90;;;;;;5003781;28;20251;-78
2022/01/05 03:51:01;;;;;;;5.37;1.70;;;4.80;99.90;;;;;;5007530;28;20933;-77
2022/01/05 03:53:28;;;;;;;7.87;2.27;;;4.80;99.90;;;;;;5016296;28;20241;-78
2022/01/05 03:55:54;;;;;;;6.67;2.10;;;4.80;99.90;;;;;;5000306;28;20225;-78
2022/01/05 03:58:21;;;;;;;10.57;2.13;;;4.80;99.90;;;;;;5012715;28;20220;-77
2022/01/05 04:00:50;;;;;;;9.03;2.10;;;4.80;99.90;;;;;;5010202;28;20229;-78
2022/01/05 04:03:17;;;;;;;9.63;1.80;;;4.80;99.90;;;;;;5003417;28;20872;-77
2022/01/05 04:05:46;;;;;;;6.80;1.60;;;4.90;99.90;;;;;;5010417;28;20311;-77
2022/01/05 04:08:14;;;;;;;9.40;2.17;;;4.90;99.90;;;;;;5007935;28;20301;-78
2022/01/05 04:10:40;;;;;;;10.30;1.80;;;4.80;99.90;;;;;;4999456;28;20235;-77
2022/01/05 04:13:07;;;;;;;5.93;2.17;;;4.90;99.90;;;;;;5007905;28;20226;-77
2022/01/05 04:15:34;;;;;;;6.30;2.30;;;4.90;99.90;;;;;;5006990;28;20248;-78
2022/01/05 04:18:01;;;;;;;7.97;1.60;;;4.90;99.90;;;;;;5008901;28;20218;-77
2022/01/05 04:20:29;;;;;;;8.03;1.73;;;4.90;99.90;;;;;;5009936;28;20239;-77
2022/01/05 04:22:57;;;;;;;7.73;1.73;;;5.00;99.90;;;;;;5025140;28;20551;-77
2022/01/05 04:25:24;;;;;;;9.20;2.40;;;4.90;99.90;;;;;;5009697;28;20252;-78
2022/01/05 04:27:51;;;;;;;8.80;1.87;;;4.90;99.90;;;;;;5020134;28;20221;-77
2022/01/05 04:30:18;;;;;;;6.13;2.20;;;4.90;99.90;;;;;;5026458;28;20216;-78
2022/01/05 04:32:44;;;;;;;10.27;1.80;;;4.90;99.90;;;;;;5008604;28;20220;-78
2022/01/05 04:35:13;;;;;;;7.53;1.60;;;4.90;99.90;;;;;;5008396;28;20251;-78
2022/01/05 04:37:41;;;;;;;9.57;2.30;;;4.90;99.90;;;;;;5015481;28;20225;-77
2022/01/05 04:40:11;;;;;;;10.73;2.57;;;5.00;99.90;;;;;;5004430;28;20230;-78
2022/01/05 04:42:38;;;;;;;7.63;2.00;;;5.00;99.90;;;;;;5038693;28;20233;-79
2022/01/05 04:45:05;;;;;;;8.83;2.13;;;5.00;99.90;;;;;;5008232;28;20225;-78
2022/01/05 04:47:32;;;;;;;11.40;2.17;;;5.00;99.90;;;;;;5008166;28;20393;-78
2022/01/05 04:49:59;;;;;;;6.83;1.80;;;5.10;99.90;;;;;;5008753;28;20301;-78
2022/01/05 04:52:26;;;;;;;9.70;2.73;;;5.10;99.90;;;;;;5026636;28;20659;-78
2022/01/05 04:54:52;;;;;;;5.57;1.90;;;5.10;99.90;;;;;;5029734;28;20232;-79
2022/01/05 04:57:20;;;;;;;11.27;2.57;;;5.10;99.90;;;;;;5011058;28;20650;-78
2022/01/05 04:59:47;;;;;;;9.77;1.70;;;5.20;99.90;;;;;;5008060;28;20224;-78
2022/01/05 05:02:14;;;;;;;9.50;2.33;;;5.20;99.90;;;;;;5021797;28;20315;-81
2022/01/05 05:04:41;;;;;;;9.37;1.93;;;5.30;99.90;;;;;;5008069;28;20222;-81
2022/01/05 05:07:08;;;;;;;9.30;2.03;;;5.30;99.90;;;;;;5005919;28;20230;-85
2022/01/05 05:09:35;;;;;;;10.13;2.63;;;5.30;99.90;;;;;;5016874;28;20660;-81
2022/01/05 05:12:01;;;;;;;9.47;2.33;;;5.40;99.90;;;;;;5007660;28;20226;-81
2022/01/05 05:14:29;;;;;;;6.67;2.03;;;5.40;99.90;;;;;;5011222;28;20605;-81
2022/01/05 05:16:56;;;;;;;9.17;2.30;;;5.40;99.90;;;;;;5016373;28;20220;-80
2022/01/05 05:19:23;;;;;;;10.37;2.70;;;5.50;99.90;;;;;;5032446;28;20218;-81
2022/01/05 05:21:49;;;;;;;9.50;2.13;;;5.50;99.90;;;;;;5018186;28;20711;-81
2022/01/05 05:24:16;;;;;;;11.00;3.17;;;5.50;99.90;;;;;;5010558;28;20218;-81
2022/01/05 05:26:43;;;;;;;13.27;1.97;;;5.60;99.90;;;;;;5017879;28;20224;-81
2022/01/05 05:29:09;;;;;;;10.07;1.87;;;5.60;99.90;;;;;;5023717;28;20231;-82
2022/01/05 05:31:38;;;;;;;14.57;2.73;;;5.60;99.90;;;;;;5016226;28;20232;-80
2022/01/05 05:34:04;;;;;;;8.37;2.00;;;5.70;99.90;;;;;;5008798;28;20236;-81
2022/01/05 05:36:31;;;;;;;18.50;2.97;;;5.70;99.90;;;;;;5003955;28;20239;-84
2022/01/05 05:38:58;;;;;;;9.47;2.20;;;5.70;99.90;;;;;;5015949;28;20218;-81
2022/01/05 05:41:24;;;;;;;8.70;2.23;;;5.80;99.90;;;;;;5005586;28;20227;-81
2022/01/05 05:43:51;;;;;;;10.63;2.37;;;5.80;99.90;;;;;;5012920;28;20332;-81
2022/01/05 05:46:19;;;;;;;8.00;2.17;;;5.80;99.90;;;;;;5009581;28;20262;-81
2022/01/05 05:48:47;;;;;;;9.90;2.50;;;5.80;99.90;;;;;;5014564;28;20734;-81
2022/01/05 05:51:13;;;;;;;12.97;2.80;;;5.80;99.90;;;;;;5026003;28;20228;-80
2022/01/05 05:53:40;;;;;;;8.13;2.33;;;5.90;99.90;;;;;;4997615;28;20227;-81
2022/01/05 05:56:07;;;;;;;8.63;2.37;;;5.90;99.90;;;;;;5006836;28;20236;-81
2022/01/05 05:58:34;;;;;;;7.43;2.20;;;5.90;99.90;;;;;;5003094;28;20309;-81
2022/01/05 06:01:00;;;;;;;11.17;2.60;;;6.00;99.90;;;;;;5025689;28;20229;-81
2022/01/05 06:03:27;;;;;;;8.03;2.70;;;6.00;99.90;;;;;;5014926;28;20222;-81
2022/01/05 06:05:55;;;;;;;7.13;2.37;;;6.00;99.90;;;;;;5007318;28;20235;-81
2022/01/05 06:08:22;;;;;;;10.33;2.30;;;6.00;99.90;;;;;;5009092;28;20245;-81
2022/01/05 06:10:49;;;;;;;9.77;2.90;;;6.00;99.90;;;;;;5017385;28;20586;-81
2022/01/05 06:13:15;;;;;;;12.90;2.67;;;6.00;99.90;;;;;;5041108;28;20233;-81
2022/01/05 06:15:42;;;;;;;7.47;2.20;;;6.00;99.90;;;;;;5002903;28;20238;-81
2022/01/05 06:18:09;;;;;;;6.70;2.13;;;6.00;99.90;;;;;;5025365;28;20214;-81
2022/01/05 06:20:35;;;;;;;14.60;2.67;;;6.00;99.90;;;;;;5011588;28;20227;-81
2022/01/05 06:23:03;;;;;;;14.67;2.87;;;6.00;99.90;;;;;;5020405;28;20229;-81
2022/01/05 06:25:30;;;;;;;12.43;2.60;;;6.00;99.90;;;;;;5027997;28;20236;-82
2022/01/05 06:27:57;;;;;;;11.33;2.80;;;6.00;99.90;;;;;;5018392;28;20704;-82
2022/01/05 06:30:24;;;;;;;8.07;2.80;;;6.00;99.90;;;;;;5020931;28;20221;-82
2022/01/05 06:32:50;;;;;;;7.47;2.53;;;5.90;99.90;;;;;;5016707;28;20233;-82
2022/01/05 06:35:23;;;;;;;6.97;2.50;;;5.90;99.90;;;;;;5006758;28;20220;-82
2022/01/05 06:37:50;;;;;;;11.73;2.97;;;5.90;99.90;;;;;;5012017;28;20224;-82
2022/01/05 06:40:18;;;;;;;11.67;2.80;;;5.90;99.90;;;;;;5015064;28;20238;-82
2022/01/05 06:42:45;;;;;;;12.73;3.07;;;5.90;99.90;;;;;;5011394;28;20238;-82
2022/01/05 06:45:12;;;;;;;8.33;2.33;;;5.90;99.90;;;;;;5019721;28;20228;-81
2022/01/05 06:47:38;;;;;;;9.53;2.43;;;5.90;99.90;;;;;;5017453;28;20298;-81
2022/01/05 06:50:06;;;;;;;10.47;2.63;;;5.90;99.90;;;;;;5003767;28;20235;-81
2022/01/05 06:52:32;;;;;;;11.50;2.87;;;5.90;99.90;;;;;;5012546;28;20228;-81
2022/01/05 06:54:59;;;;;;;10.13;2.50;;;5.90;99.90;;;;;;5004180;28;20230;-82
2022/01/05 06:57:27;;;;;;;8.40;2.43;;;5.90;99.90;;;;;;5020113;28;20224;-81
2022/01/05 06:59:54;;;;;;;9.60;2.27;;;5.90;99.90;;;;;;5009590;28;20294;-82
2022/01/05 07:02:20;;;;;;;8.60;2.67;;;5.80;99.90;;;;;;5041419;28;20908;-82
2022/01/05 07:04:47;;;;;;;10.47;2.33;;;5.90;99.90;;;;;;5019693;28;20312;-82
2022/01/05 07:07:14;;;;;;;8.43;2.13;;;5.90;99.90;;;;;;5009362;28;20223;-81
2022/01/05 07:09:41;;;;;;;12.20;3.37;;;5.90;99.90;;;;;;5016485;28;20235;-81
2022/01/05 07:12:09;;;;;;;12.00;2.27;;;5.90;99.90;;;;;;5026532;28;20824;-81
2022/01/05 07:14:37;;;;;;;13.80;2.90;;;5.90;99.90;;;;;;5014494;28;20244;-82
2022/01/05 07:17:04;;;;;;;12.33;2.33;;;5.90;99.90;;;;;;5013009;28;20220;-82
2022/01/05 07:19:30;;;;;;;9.00;2.70;;;5.90;99.90;;;;;;5031655;28;20239;-82
2022/01/05 07:21:57;;;;;;;9.50;2.70;;;5.90;99.90;;;;;;5007781;28;20771;-81
2022/01/05 07:24:24;;;;;;;13.43;2.53;;;5.90;99.90;;;;;;5011150;28;20231;-78
2022/01/05 07:26:50;;;;;;;12.40;2.70;;;5.90;99.90;;;;;;5012137;28;20227;-77
2022/01/05 07:29:19;;;;;;;8.93;2.57;;;5.90;99.90;;;;;;5012849;28;20220;-77
2022/01/05 07:31:47;;;;;;;13.50;2.77;;;5.90;99.90;;;;;;5009394;28;20243;-77
2022/01/05 07:34:15;;;;;;;9.93;2.67;;;5.90;99.90;;;;;;5014396;28;20227;-78
2022/01/05 07:36:41;;;;;;;9.57;2.50;;;6.00;99.90;;;;;;5007071;28;20232;-79
2022/01/05 07:39:08;;;;;;;7.07;2.73;;;6.00;99.90;;;;;;5024182;28;20219;-77
2022/01/05 07:41:36;;;;;;;11.23;3.00;;;6.00;99.90;;;;;;5026350;28;20223;-77
2022/01/05 07:44:03;;;;;;;10.70;2.50;;;6.00;99.90;;;;;;5006574;28;20235;-77
2022/01/05 07:46:29;;;;;;;14.57;3.30;;;6.00;99.90;;;;;;5008776;28;20227;-77
2022/01/05 07:48:57;;;;;;;8.17;2.37;;;6.00;99.90;;;;;;5024218;28;20799;-78
2022/01/05 07:51:24;;;;;;;9.77;2.20;;;6.10;99.90;;;;;;5011715;28;20251;-77
2022/01/05 07:53:51;;;;;;;11.17;2.40;;;6.10;99.90;;;;;;5014450;28;20226;-77
2022/01/05 07:56:18;;;;;;;15.27;2.67;;;6.10;99.90;;;;;;5010365;28;20239;-77
2022/01/05 07:58:44;;;;;;;10.90;2.40;;;6.10;99.90;;;;;;5005229;28;20228;-77
2022/01/05 08:01:11;;;;;;;7.03;2.47;;;6.10;99.90;;;;;;5008438;28;20224;-77
2022/01/05 08:03:38;;;;;;;12.17;2.40;;;6.20;99.90;;;;;;5006718;28;20552;-77
2022/01/05 08:06:06;;;;;;;14.60;3.20;;;6.20;99.90;;;;;;5009077;28;20310;-77
2022/01/05 08:08:33;;;;;;;12.93;3.00;;;6.20;99.90;;;;;;5025347;28;20220;-77
2022/01/05 08:11:00;;;;;;;13.63;3.40;;;6.20;99.90;;;;;;5008797;28;20414;-77
2022/01/05 08:13:27;;;;;;;10.23;2.87;;;6.30;99.90;;;;;;5021337;28;20620;-77
2022/01/05 08:15:54;;;;;;;14.10;2.73;;;6.30;99.90;;;;;;5007169;28;20215;-77
2022/01/05 08:18:21;;;;;;;10.67;2.80;;;6.30;99.90;;;;;;5006794;28;20244;-77
2022/01/05 08:20:48;;;;;;;12.53;3.00;;;6.30;99.90;;;;;;5009899;28;20220;-77
2022/01/05 08:23:17;;;;;;;11.47;3.03;;;6.40;99.90;;;;;;5003033;28;20228;-77
2022/01/05 08:25:44;;;;;;;8.57;2.37;;;6.40;99.90;;;;;;5012554;28;20251;-77
2022/01/05 08:28:11;;;;;;;13.63;3.20;;;6.40;99.90;;;;;;5014344;28;20710;-77
2022/01/05 08:30:39;;;;;;;8.87;2.70;;;6.40;99.90;;;;;;5004662;28;20226;-77
2022/01/05 08:33:07;;;;;;;10.20;3.13;;;6.40;99.90;;;;;;5026914;28;20320;-77
2022/01/05 08:35:34;;;;;;;12.23;2.77;;;6.40;99.90;;;;;;5011527;28;20229;-77
2022/01/05 08:38:01;;;;;;;12.50;3.40;;;6.40;99.90;;;;;;5010543;28;20231;-77
2022/01/05 08:40:30;;;;;;;10.20;3.00;;;6.40;99.90;;;;;;5018596;28;20229;-77
2022/01/05 08:42:57;;;;;;;11.10;2.77;;;6.40;99.90;;;;;;5005105;28;20254;-78
2022/01/05 08:45:25;;;;;;;13.77;3.03;;;6.30;99.90;;;;;;5008483;28;20294;-77
2022/01/05 08:47:55;;;;;;;10.80;2.80;;;6.30;99.90;;;;;;5002118;28;20228;-78
2022/01/05 08:50:24;;;;;;;15.00;3.20;;;6.30;99.90;;;;;;5006292;28;20255;-78
2022/01/05 08:52:52;;;;;;;9.70;2.83;;;6.30;99.90;;;;;;5008587;28;20238;-77
2022/01/05 08:55:21;;;;;;;10.80;2.80;;;6.30;99.90;;;;;;5011506;28;20793;-78
2022/01/05 08:57:50;;;;;;;11.60;2.87;;;6.30;99.90;;;;;;5008237;28;21077;-78
2022/01/05 09:00:18;;;;;;;10.30;3.60;;;6.30;99.90;;;;;;5011976;28;21128;-77
2022/01/05 09:02:45;;;;;;;11.67;3.50;;;6.30;99.90;;;;;;5010415;28;20225;-78
2022/01/05 09:05:11;;;;;;;11.30;3.37;;;6.30;99.90;;;;;;5009752;28;20680;-77
2022/01/05 09:07:38;;;;;;;10.87;3.13;;;6.30;99.90;;;;;;5011563;28;20228;-78
2022/01/05 09:10:06;;;;;;;12.03;3.43;;;6.30;99.90;;;;;;5011047;28;20612;-77
2022/01/05 09:12:34;;;;;;;9.80;3.07;;;6.30;99.90;;;;;;5010517;28;20736;-78
2022/01/05 09:15:03;;;;;;;10.43;2.90;;;6.30;99.90;;;;;;5005708;28;20797;-78
2022/01/05 09:17:30;;;;;;;11.33;3.43;;;6.30;99.90;;;;;;5005894;28;20223;-78
2022/01/05 09:19:56;;;;;;;8.07;3.10;;;6.30;99.90;;;;;;5011241;28;20223;-78
2022/01/05 09:22:23;;;;;;;8.67;3.40;;;6.30;99.90;;;;;;5017495;28;20236;-78
2022/01/05 09:24:51;;;;;;;7.80;2.93;;;6.30;99.90;;;;;;5010083;28;20847;-78
2022/01/05 09:27:18;;;;;;;8.63;3.00;;;6.30;99.90;;;;;;5008931;28;20219;-78
2022/01/05 09:29:45;;;;;;;9.27;3.43;;;6.30;99.90;;;;;;5013239;28;20224;-77
2022/01/05 09:32:13;;;;;;;8.57;3.40;;;6.30;99.90;;;;;;5006673;28;20234;-78
2022/01/05 09:34:42;;;;;;;8.23;3.23;;;6.30;99.90;;;;;;5008892;28;20728;-78
2022/01/05 09:37:14;;;;;;;10.37;3.30;;;6.30;99.90;;;;;;5007522;28;20228;-78
2022/01/05 09:42:25;;;;;;;13.93;4.47;;;6.40;99.90;;;;;;5006742;28;20714;-78
2022/01/05 09:44:53;;;;;;;10.73;3.83;;;6.40;99.90;;;;;;5009809;28;20245;-77
2022/01/05 09:47:48;;;;;;;12.37;3.87;;;6.40;99.90;;;;;;5037949;28;20319;-78
2022/01/05 09:50:15;;;;;;;10.57;3.70;;;6.40;99.90;;;;;;5012386;28;20228;-77
2022/01/05 09:52:44;;;;;;;9.47;3.90;;;6.50;99.90;;;;;;5023781;28;20214;-78
2022/01/05 09:55:12;;;;;;;9.43;3.53;;;6.50;99.90;;;;;;5004797;28;20243;-77
2022/01/05 09:57:40;;;;;;;12.13;4.27;;;6.50;99.90;;;;;;5019426;28;20699;-77
2022/01/05 10:00:09;;;;;;;8.97;3.93;;;6.60;99.90;;;;;;5008492;28;20311;-78
2022/01/05 10:02:41;;;;;;;9.50;3.87;;;6.60;99.90;;;;;;5028334;28;20239;-78
2022/01/05 10:05:09;;;;;;;11.97;3.87;;;6.60;99.90;;;;;;5010464;28;20231;-78
2022/01/05 10:07:37;;;;;;;8.97;4.00;;;6.60;99.90;;;;;;5010996;28;20219;-77
2022/01/05 10:10:04;;;;;;;13.83;4.00;;;6.60;99.90;;;;;;5008872;28;20221;-77
2022/01/05 10:12:31;;;;;;;13.60;4.00;;;6.70;99.90;;;;;;5014075;28;20376;-77
2022/01/05 10:14:58;;;;;;;13.43;3.97;;;6.70;99.90;;;;;;5005791;28;20220;-78
2022/01/05 10:17:28;;;;;;;12.97;3.90;;;6.80;99.90;;;;;;5006805;28;20621;-78
2022/01/05 10:20:00;;;;;;;9.57;3.50;;;6.80;99.90;;;;;;5012490;28;20217;-77
2022/01/05 10:22:33;;;;;;;12.13;4.27;;;6.80;99.90;;;;;;5013002;28;20212;-77
2022/01/05 10:25:01;;;;;;;10.00;4.13;;;6.90;99.90;;;;;;5013129;28;20368;-78
2022/01/05 10:27:29;;;;;;;10.50;4.17;;;6.90;99.90;;;;;;5007560;28;20216;-77
2022/01/05 10:29:58;;;;;;;10.87;4.23;;;6.90;99.90;;;;;;5036416;28;20750;-79
2022/01/05 10:32:25;;;;;;;9.07;4.50;;;6.90;99.90;;;;;;5009526;28;20232;-78
2022/01/05 10:35:11;;;;;;;10.03;4.43;;;7.00;99.90;;;;;;4999890;28;20291;-78
2022/01/05 10:37:41;;;;;;;7.63;4.47;;;7.00;99.90;;;;;;5004076;28;20221;-78
2022/01/05 10:40:11;;;;;;;12.97;4.40;;;7.00;99.90;;;;;;5005500;28;20276;-77
2022/01/05 10:42:39;;;;;;;10.50;4.93;;;7.00;99.90;;;;;;5005807;28;20238;-78
2022/01/05 10:45:08;;;;;;;11.13;5.30;;;7.10;99.90;;;;;;5004234;28;20332;-77
2022/01/05 10:47:35;;;;;;;8.67;4.00;;;7.10;99.90;;;;;;5028127;28;20235;-77
2022/01/05 10:50:02;;;;;;;12.00;3.97;;;7.10;99.90;;;;;;5006994;28;20882;-77
2022/01/05 10:52:32;;;;;;;10.70;4.43;;;7.10;99.90;;;;;;5003918;28;20250;-77
2022/01/05 10:55:11;;;;;;;9.13;3.90;;;7.20;99.90;;;;;;4998521;28;20237;-77
2022/01/05 10:57:37;;;;;;;12.03;3.77;;;7.20;99.90;;;;;;5004816;28;20235;-77
2022/01/05 11:00:06;;;;;;;9.40;3.90;;;7.20;99.90;;;;;;5005632;28;20225;-77
2022/01/05 11:02:34;;;;;;;8.47;3.67;;;7.20;99.90;;;;;;5002251;28;20256;-77
2022/01/05 11:05:14;;;;;;;9.13;3.77;;;7.20;99.90;;;;;;5003773;28;20356;-77
2022/01/05 11:07:46;;;;;;;7.93;3.77;;;7.30;99.90;;;;;;5015113;28;20304;-77
2022/01/05 11:10:15;;;;;;;7.40;4.00;;;7.30;99.90;;;;;;5006498;28;20324;-77
2022/01/05 11:12:44;;;;;;;11.20;4.07;;;7.30;99.90;;;;;;5034272;28;20243;-77
2022/01/05 11:15:35;;;;;;;8.40;3.30;;;7.30;99.90;;;;;;5002558;28;20669;-76
2022/01/05 11:18:11;;;;;;;7.13;3.30;;;7.40;99.90;;;;;;5004393;28;20214;-77
2022/01/05 11:20:39;;;;;;;7.27;3.00;;;7.40;99.90;;;;;;5008537;28;20228;-77
2022/01/05 11:23:07;;;;;;;5.60;2.57;;;7.40;99.90;;;;;;5002609;28;20238;-77
2022/01/05 11:25:37;;;;;;;7.60;2.77;;;7.40;99.90;;;;;;5001339;28;20355;-77
2022/01/05 11:28:04;;;;;;;4.93;2.37;;;7.40;99.90;;;;;;5021406;28;20221;-77
2022/01/05 11:30:31;;;;;;;5.37;2.90;;;7.40;99.90;;;;;;5001187;28;20236;-78
2022/01/05 11:32:58;;;;;;;7.87;3.07;;;7.30;99.90;;;;;;5009944;28;20213;-77
2022/01/05 11:35:25;;;;;;;2.93;2.60;;;7.30;99.90;;;;;;5020928;28;20221;-77
2022/01/05 11:37:51;;;;;;;5.67;2.63;;;7.30;99.90;;;;;;5009053;28;20235;-78
2022/01/05 11:40:21;;;;;;;7.27;3.50;;;7.20;99.90;;;;;;5006346;28;20218;-77
2022/01/05 11:42:50;;;;;;;6.00;3.57;;;7.20;99.90;;;;;;4998379;28;20233;-78
2022/01/05 11:45:29;;;;;;;4.13;2.90;;;7.20;99.90;;;;;;5006597;28;20217;-77
2022/01/05 11:48:13;;;;;;;3.63;2.23;;;7.10;99.90;;;;;;5010471;28;20236;-78
2022/01/05 11:50:44;;;;;;;2.97;2.27;;;7.00;99.90;;;;;;5007626;28;20328;-78
2022/01/05 11:53:11;;;;;;;4.70;2.43;;;7.00;99.90;;;;;;4998075;28;20913;-77
2022/01/05 11:56:05;;;;;;;3.93;2.80;;;7.00;99.90;;;;;;5003727;28;20227;-78
2022/01/05 11:58:33;;;;;;;6.10;2.80;;;7.00;99.90;;;;;;5002076;28;20686;-81
2022/01/05 12:01:23;;;;;;;3.57;2.80;;;7.00;99.90;;;;;;5004024;28;20220;-80
2022/01/05 12:04:16;;;;;;;3.77;2.80;;;7.00;99.90;;;;;;5004153;28;20220;-81
2022/01/05 12:07:09;;;;;;;4.83;2.60;;;7.00;99.90;;;;;;5013308;28;20312;-81
2022/01/05 12:09:39;;;;;;;3.63;2.80;;;7.00;99.90;;;;;;5006002;28;20229;-80
2022/01/05 12:12:30;;;;;;;3.43;2.33;;;7.00;99.90;;;;;;5005679;28;20218;-79
2022/01/05 12:14:57;;;;;;;3.10;2.03;;;7.00;99.90;;;;;;5002079;28;20593;-83
2022/01/05 12:17:25;;;;;;;3.73;2.30;;;7.10;99.90;;;;;;5014796;28;20216;-79
2022/01/05 12:20:19;;;;;;;2.73;2.00;;;7.10;99.90;;;;;;5005091;28;20302;-80
2022/01/05 12:22:46;;;;;;;4.97;2.03;;;7.20;99.90;;;;;;5024266;28;20231;-80
2022/01/05 12:25:16;;;;;;;2.43;1.60;;;7.20;99.90;;;;;;5004773;28;21387;-80
2022/01/05 12:27:59;;;;;;;4.07;2.07;;;7.20;99.90;;;;;;5006384;28;20264;-80
2022/01/05 12:30:37;;;;;;;3.47;1.67;;;7.30;99.90;;;;;;5007850;28;20256;-80
2022/01/05 12:33:10;;;;;;;4.47;1.40;;;7.30;99.90;;;;;;5006532;28;20257;-80
2022/01/05 12:36:00;;;;;;;1.47;1.20;;;7.30;99.90;;;;;;5006540;28;20228;-80
2022/01/05 12:38:38;;;;;;;2.90;1.20;;;7.30;99.90;;;;;;4989547;28;20231;-80
2022/01/05 12:41:28;;;;;;;2.50;1.67;;;7.30;99.90;;;;;;5003630;28;20213;-82
2022/01/05 12:43:59;;;;;;;3.13;1.13;;;7.20;99.90;;;;;;5016686;28;20738;-80
2022/01/05 12:46:42;;;;;;;9.93;1.30;;;7.20;99.90;;;;;;5010382;28;20625;-80
2022/01/05 12:49:14;;;;;;;1.50;1.40;;;7.20;99.90;;;;;;5005575;28;20247;-80
2022/01/05 12:52:01;;;;;;;3.37;1.13;;;7.20;99.90;;;;;;5016404;28;20263;-80
2022/01/05 12:54:31;;;;;;;2.13;1.50;;;7.10;99.90;;;;;;5016567;28;20224;-80
2022/01/05 12:57:00;;;;;;;1.57;1.30;;;7.10;99.90;;;;;;5001698;28;20282;-79
2022/01/05 12:59:31;;;;;;;1.20;1.10;;;7.10;99.90;;;;;;5008139;28;20231;-80
2022/01/05 13:02:01;;;;;;;2.03;1.50;;;7.10;99.90;;;;;;5005500;28;20673;-81